Aérodrome :
LOGIN :

S'inscrire | Disclaimer

   EN    FR    IT 

 










Légende :    VFR   VFR Marginal   IFR   IFR Intensif   IFR Très Intensif
Visi : 
Plafond : 
>= 8 km
>= 3000ft
5 à 8 km
1000 à 3000 ft
1500m à 5 km
500 à 1000 ft
800 à 1500m
200 à 500 ft
< 800m
< 200 ft
Symboles :   Orages  Brouillard  Fortes neiges  Fortes précipitations  Vent > 20 kt
SIGMETs :   Divers  Orages  Givrage  Turbulence  Onde Orograph.  Cendres Volcan.







- Altitude de l'aérodrome : 527 ft
- Code IATA : DBV


LDDU - Dubrovnik

DERNIER METAR :
  • 291730Z 02015KT 340V060 CAVOK 12/07 Q1012 NOSIG

METARs EXPIRÉS :
  • 291700Z 02015KT 350V050 9999 FEW060 12/07 Q1012 NOSIG
  • 291630Z 02010KT 340V060 9999 FEW060 12/08 Q1012 NOSIG
  • 291600Z 06007KT 030V100 9999 -RA FEW060 12/08 Q1013 NOSIG
  • 291530Z 01004KT 310V110 9999 -RA SCT055 12/08 Q1013 NOSIG
  • 291500Z VRB04KT 9999 -RA SCT055 12/08 Q1013 NOSIG

TAF TAF LDDU
Valide du 29 à 18h jusqu'au 30 à 18h UTC


291725Z 2918/3018 02015KT 9999 FEW060 TX19/3012Z TN10/3004Z
TEMPO 2922/3006 02018G28KT
BECMG 3008/3010 22008KT
BECMG 3012/3014 29010KT
Pas de NOTAMs connus pour ce terrain.
1 SIGMET publié pour la FIR Zagreb (LDZO) :
 
Turbulence forte
LDZO SIGMET 1 VALID 291556/291730 LDZA
LDZO ZAGREB FIR SEV TURB OBS WI N4234 E01833 - N4145 E01823 - N4252 E01616 - N4335 E01700 - N4234 E01833 FL340/390 STNR WKN=



MET'MAP, la Météo Aéronautique d'un coup d'oeil ! - Copyright ORBIFLY Décembre 2007 - Disclaimer

ORBIFLY MET'MAP TEAM :

Programmation & Développement : Alexandra Zaïnal
Conception & Développement : Baudouin d'Aumeries
Co-Programmation & Développement : Marc-Olivier Méhu
Soutien technique & logistique : Manuel Goepfert

Contact : metmap@orbifly.com




SOURCES & CREDITS :

   NOAA